Terminal Aerodrome Forecast
Issued by NWS

Home | Current Version | Previous Version | Text Only | Print | Product List | Glossary On
Versions: 1 2 3 4 5 6 7 8 9 10 11 12 13 14 15 16 17 18 19 20 21 22 23 24 25 26
000
FTUS42 KRAH 302339
TAFRWI
TAF
KRWI 302339Z 3100/3124 VRB05KT P6SM SCT100
      TEMPO 3109/3112 00000KT 3SM BR=

USA.gov is the U.S. government's official web portal to all federal, state and local government web resources and services.